createdAt,value
2023-01-27T00:00:05.009Z,0.00
2023-01-27T00:01:05.025Z,0.00
2023-01-27T00:02:04.989Z,0.00
2023-01-27T00:03:04.985Z,0.00
2023-01-27T00:04:04.972Z,0.00
2023-01-27T00:05:04.961Z,0.00
2023-01-27T00:06:04.959Z,0.00
2023-01-27T00:07:04.945Z,0.00
2023-01-27T00:08:04.931Z,0.00
2023-01-27T00:09:04.950Z,0.00
2023-01-27T00:10:04.978Z,0.00
2023-01-27T00:11:04.899Z,0.00
2023-01-27T00:12:04.888Z,0.00
2023-01-27T00:13:04.884Z,0.00
2023-01-27T00:14:04.879Z,0.00
2023-01-27T00:15:04.859Z,0.00
2023-01-27T00:16:04.886Z,0.00
2023-01-27T00:17:04.839Z,0.00
2023-01-27T00:18:04.851Z,0.00
2023-01-27T00:19:04.834Z,0.00
2023-01-27T00:20:04.806Z,0.00
2023-01-27T00:21:04.792Z,0.00
2023-01-27T00:22:04.787Z,0.00
2023-01-27T00:23:04.778Z,0.00
2023-01-27T00:24:04.814Z,0.00
2023-01-27T00:25:04.760Z,0.00
2023-01-27T00:26:04.753Z,0.00
2023-01-27T00:27:04.731Z,0.00
2023-01-27T00:28:04.720Z,0.00
2023-01-27T00:29:04.731Z,0.00
2023-01-27T00:30:04.697Z,0.00
2023-01-27T00:31:04.781Z,0.00
2023-01-27T00:32:04.674Z,0.00
2023-01-27T00:33:04.670Z,0.00
2023-01-27T00:34:04.667Z,0.00
2023-01-27T00:35:04.651Z,0.00
2023-01-27T00:36:04.653Z,0.00
2023-01-27T00:37:04.627Z,0.00
2023-01-27T00:38:04.612Z,0.00
2023-01-27T00:39:04.628Z,0.00
2023-01-27T00:40:04.592Z,0.00
2023-01-27T00:41:04.593Z,0.00
2023-01-27T00:42:04.579Z,0.00
2023-01-27T00:43:04.564Z,0.00
2023-01-27T00:44:04.570Z,0.00
2023-01-27T00:45:04.545Z,0.00
2023-01-27T00:46:04.539Z,0.00
2023-01-27T00:47:04.537Z,0.00
2023-01-27T00:48:04.516Z,0.00
2023-01-27T00:49:04.509Z,0.00
2023-01-27T00:50:04.485Z,0.00
2023-01-27T00:51:04.478Z,0.00
2023-01-27T00:52:04.467Z,0.00
2023-01-27T00:53:04.459Z,0.00
2023-01-27T00:54:04.467Z,0.00
2023-01-27T00:55:04.436Z,0.00
2023-01-27T00:56:04.422Z,0.00
2023-01-27T00:57:04.421Z,0.00
2023-01-27T00:58:04.408Z,0.00
2023-01-27T00:59:04.417Z,0.00
2023-01-27T01:00:04.405Z,0.00
2023-01-27T01:01:04.371Z,0.00
2023-01-27T01:02:04.413Z,0.00
2023-01-27T01:03:04.436Z,0.00
2023-01-27T01:04:04.360Z,0.00
2023-01-27T01:05:04.343Z,0.00
2023-01-27T01:06:04.344Z,0.00
2023-01-27T01:07:04.310Z,0.00
2023-01-27T01:08:04.293Z,0.00
2023-01-27T01:09:04.304Z,0.00
2023-01-27T01:10:04.272Z,0.00
2023-01-27T01:11:04.273Z,0.00
2023-01-27T01:12:04.254Z,0.00
2023-01-27T01:13:04.246Z,0.00
2023-01-27T01:14:04.241Z,0.00
2023-01-27T01:15:04.228Z,0.00
2023-01-27T01:16:04.237Z,0.00
2023-01-27T01:17:04.203Z,0.00
2023-01-27T01:18:04.189Z,0.00
2023-01-27T01:19:04.207Z,0.00
2023-01-27T01:20:04.178Z,0.00
2023-01-27T01:21:04.175Z,0.00
2023-01-27T01:22:05.038Z,0.00
2023-01-27T01:23:04.145Z,0.00
2023-01-27T01:24:04.168Z,0.00
2023-01-27T01:25:04.122Z,0.00
2023-01-27T01:26:04.186Z,0.00
2023-01-27T01:27:04.109Z,0.00
2023-01-27T01:28:04.083Z,0.00
2023-01-27T01:29:04.127Z,0.00
2023-01-27T01:30:04.063Z,0.00
2023-01-27T01:31:04.231Z,0.00
2023-01-27T01:32:04.046Z,0.00
2023-01-27T01:33:04.045Z,0.00
2023-01-27T01:34:04.034Z,0.00
2023-01-27T01:35:04.013Z,0.00
2023-01-27T01:36:04.001Z,0.00
2023-01-27T01:37:03.995Z,0.00
2023-01-27T01:38:03.991Z,0.00
2023-01-27T01:39:03.984Z,0.00
2023-01-27T01:40:03.962Z,0.00
2023-01-27T01:41:03.963Z,0.00
2023-01-27T01:42:03.948Z,0.00
2023-01-27T01:43:03.982Z,0.00
2023-01-27T01:44:03.928Z,0.00
2023-01-27T01:45:03.927Z,0.00
2023-01-27T01:46:03.899Z,0.00
2023-01-27T01:47:03.907Z,0.00
2023-01-27T01:48:03.918Z,0.00
2023-01-27T01:49:03.897Z,0.00
2023-01-27T01:50:03.868Z,0.00
2023-01-27T01:51:03.866Z,0.00
2023-01-27T01:52:03.845Z,0.00
2023-01-27T01:53:03.833Z,0.00
2023-01-27T01:54:03.841Z,0.00
2023-01-27T01:55:03.826Z,0.00
2023-01-27T01:56:03.812Z,0.00
2023-01-27T01:57:03.794Z,0.00
2023-01-27T01:58:03.785Z,0.00
2023-01-27T01:59:03.787Z,0.00
2023-01-27T02:00:03.757Z,0.00
2023-01-27T02:01:03.827Z,0.00
2023-01-27T02:02:03.800Z,0.00
2023-01-27T02:03:03.726Z,0.00
2023-01-27T02:04:03.716Z,0.00
2023-01-27T02:05:03.716Z,0.00
2023-01-27T02:06:03.691Z,0.00
2023-01-27T02:07:03.700Z,0.00
2023-01-27T02:08:03.714Z,0.00
2023-01-27T02:09:03.679Z,0.00
2023-01-27T02:10:03.688Z,0.00
2023-01-27T02:11:03.661Z,0.00
2023-01-27T02:12:03.666Z,0.00
2023-01-27T02:13:03.663Z,0.00
2023-01-27T02:14:03.611Z,0.00
2023-01-27T02:15:03.604Z,0.00
2023-01-27T02:16:03.605Z,0.00
2023-01-27T02:17:03.577Z,0.00
2023-01-27T02:18:03.576Z,0.00
2023-01-27T02:19:03.562Z,0.00
2023-01-27T02:20:03.552Z,0.00
2023-01-27T02:21:03.552Z,0.00
2023-01-27T02:22:03.557Z,0.00
2023-01-27T02:23:03.522Z,0.00
2023-01-27T02:24:03.528Z,0.00
2023-01-27T02:25:03.514Z,0.00
2023-01-27T02:26:03.507Z,0.00
2023-01-27T02:27:03.471Z,0.00
2023-01-27T02:28:03.486Z,0.00
2023-01-27T02:29:03.448Z,0.00
2023-01-27T02:30:03.466Z,0.00
2023-01-27T02:31:03.564Z,0.00
2023-01-27T02:32:03.430Z,0.00
2023-01-27T02:33:03.425Z,0.00
2023-01-27T02:34:03.406Z,0.00
2023-01-27T02:35:03.399Z,0.00
2023-01-27T02:36:03.391Z,0.00
2023-01-27T02:37:03.361Z,0.00
2023-01-27T02:38:03.357Z,0.00
2023-01-27T02:39:03.397Z,0.00
2023-01-27T02:40:03.345Z,0.00
2023-01-27T02:41:03.320Z,0.00
2023-01-27T02:42:03.329Z,0.00
2023-01-27T02:43:03.299Z,0.00
2023-01-27T02:44:03.315Z,0.00
2023-01-27T02:45:03.310Z,0.00
2023-01-27T02:46:03.342Z,0.00
2023-01-27T02:47:03.253Z,0.00
2023-01-27T02:48:03.252Z,0.00
2023-01-27T02:49:03.246Z,0.00
2023-01-27T02:50:03.249Z,0.00
2023-01-27T02:51:03.244Z,0.00
2023-01-27T02:52:03.216Z,0.00
2023-01-27T02:53:03.191Z,0.00
2023-01-27T02:54:03.191Z,0.00
2023-01-27T02:55:03.185Z,0.00
2023-01-27T02:56:03.178Z,0.00
2023-01-27T02:57:03.156Z,0.00
2023-01-27T02:58:03.145Z,0.00
2023-01-27T02:59:03.134Z,0.00
2023-01-27T03:00:03.144Z,0.00
2023-01-27T03:01:03.161Z,0.00
2023-01-27T03:02:03.106Z,0.00
2023-01-27T03:03:03.094Z,0.00
2023-01-27T03:04:03.101Z,0.00
2023-01-27T03:05:03.069Z,0.00
2023-01-27T03:06:03.083Z,0.00
2023-01-27T03:07:03.048Z,0.00
2023-01-27T03:08:03.122Z,0.00
2023-01-27T03:09:03.027Z,0.00
2023-01-27T03:10:03.034Z,0.00
2023-01-27T03:11:03.016Z,0.00
2023-01-27T03:12:02.999Z,0.00
2023-01-27T03:13:02.987Z,0.00
2023-01-27T03:14:02.995Z,0.00
2023-01-27T03:15:02.984Z,0.00
2023-01-27T03:16:03.061Z,0.00
2023-01-27T03:17:02.948Z,0.00
2023-01-27T03:18:02.939Z,0.00
2023-01-27T03:19:02.927Z,0.00
2023-01-27T03:20:02.946Z,0.00
2023-01-27T03:21:02.900Z,0.00
2023-01-27T03:22:02.897Z,0.00
2023-01-27T03:23:02.883Z,0.00
2023-01-27T03:24:02.984Z,0.00
2023-01-27T03:25:02.903Z,0.00
2023-01-27T03:26:02.876Z,0.00
2023-01-27T03:27:02.851Z,0.00
2023-01-27T03:28:02.835Z,0.00
2023-01-27T03:29:02.816Z,0.00
2023-01-27T03:30:02.812Z,0.00
2023-01-27T03:31:02.872Z,0.00
2023-01-27T03:32:02.790Z,0.00
2023-01-27T03:33:02.771Z,0.00
2023-01-27T03:34:02.770Z,0.00
2023-01-27T03:35:02.768Z,0.00
2023-01-27T03:36:02.760Z,0.00
2023-01-27T03:37:02.732Z,0.00
2023-01-27T03:38:02.722Z,0.00
2023-01-27T03:39:02.721Z,0.00
2023-01-27T03:40:02.703Z,0.00
2023-01-27T03:41:02.712Z,0.00
2023-01-27T03:42:02.680Z,0.00
2023-01-27T03:43:02.677Z,0.00
2023-01-27T03:44:02.707Z,0.00
2023-01-27T03:45:02.667Z,0.00
2023-01-27T03:46:02.753Z,0.00
2023-01-27T03:47:02.631Z,0.00
2023-01-27T03:48:02.644Z,0.00
2023-01-27T03:49:02.611Z,0.00
2023-01-27T03:50:02.611Z,0.00
2023-01-27T03:51:02.585Z,0.00
2023-01-27T03:52:02.579Z,0.00
2023-01-27T03:53:02.569Z,0.00
2023-01-27T03:54:02.558Z,0.00
2023-01-27T03:55:02.561Z,0.00
2023-01-27T03:56:02.543Z,0.00
2023-01-27T03:57:02.521Z,0.00
2023-01-27T03:58:02.511Z,0.00
2023-01-27T03:59:02.525Z,0.00
2023-01-27T04:00:02.515Z,0.00
2023-01-27T04:01:02.491Z,0.00
2023-01-27T04:02:02.475Z,0.00
2023-01-27T04:03:02.542Z,0.00
2023-01-27T04:04:02.453Z,0.00
2023-01-27T04:05:02.469Z,0.00
2023-01-27T04:06:02.435Z,0.00
2023-01-27T04:07:02.413Z,0.00
2023-01-27T04:08:02.407Z,0.00
2023-01-27T04:09:02.395Z,0.00
2023-01-27T04:10:02.404Z,0.00
2023-01-27T04:11:02.391Z,0.00
2023-01-27T04:12:02.381Z,0.00
2023-01-27T04:13:02.350Z,0.00
2023-01-27T04:14:02.349Z,0.00
2023-01-27T04:15:02.336Z,0.00
2023-01-27T04:16:02.376Z,0.00
2023-01-27T04:17:02.310Z,0.00
2023-01-27T04:18:02.311Z,0.00
2023-01-27T04:19:02.292Z,0.00
2023-01-27T04:20:02.283Z,0.00
2023-01-27T04:21:02.290Z,0.00
2023-01-27T04:22:02.288Z,0.00
2023-01-27T04:23:02.250Z,0.00
2023-01-27T04:24:02.291Z,0.00
2023-01-27T04:25:02.231Z,0.00
2023-01-27T04:26:02.234Z,0.00
2023-01-27T04:27:02.202Z,0.00
2023-01-27T04:28:02.241Z,0.00
2023-01-27T04:29:02.182Z,0.00
2023-01-27T04:30:02.189Z,0.00
2023-01-27T04:31:02.227Z,0.00
2023-01-27T04:32:02.166Z,0.00
2023-01-27T04:33:02.147Z,0.00
2023-01-27T04:34:02.141Z,0.00
2023-01-27T04:35:02.144Z,0.00
2023-01-27T04:36:02.118Z,0.00
2023-01-27T04:37:02.098Z,0.00
2023-01-27T04:38:02.091Z,0.00
2023-01-27T04:39:02.077Z,0.00
2023-01-27T04:40:02.090Z,0.00
2023-01-27T04:41:02.056Z,0.00
2023-01-27T04:42:02.048Z,0.00
2023-01-27T04:43:02.037Z,0.00
2023-01-27T04:44:02.030Z,0.00
2023-01-27T04:45:02.051Z,0.00
2023-01-27T04:46:02.058Z,0.00
2023-01-27T04:47:02.000Z,0.00
2023-01-27T04:48:02.002Z,0.00
2023-01-27T04:49:01.973Z,0.00
2023-01-27T04:50:01.985Z,0.00
2023-01-27T04:51:01.951Z,0.00
2023-01-27T04:52:01.963Z,0.00
2023-01-27T04:53:01.952Z,0.00
2023-01-27T04:54:01.938Z,0.00
2023-01-27T04:55:01.934Z,0.00
2023-01-27T04:56:01.917Z,0.00
2023-01-27T04:57:01.899Z,0.00
2023-01-27T04:58:01.881Z,0.00
2023-01-27T04:59:01.879Z,0.00
2023-01-27T05:00:01.910Z,0.00
2023-01-27T05:01:01.863Z,0.00
2023-01-27T05:02:01.937Z,0.00
2023-01-27T05:03:01.840Z,0.00
2023-01-27T05:04:01.825Z,0.00
2023-01-27T05:05:01.813Z,0.00
2023-01-27T05:06:01.798Z,0.00
2023-01-27T05:07:01.787Z,0.00
2023-01-27T05:08:01.775Z,0.00
2023-01-27T05:09:01.756Z,0.00
2023-01-27T05:10:01.762Z,0.00
2023-01-27T05:11:01.743Z,0.00
2023-01-27T05:12:01.749Z,0.00
2023-01-27T05:13:01.732Z,0.00
2023-01-27T05:14:01.743Z,0.00
2023-01-27T05:15:01.721Z,0.00
2023-01-27T05:16:01.727Z,0.00
2023-01-27T05:17:01.778Z,0.00
2023-01-27T05:18:07.763Z,0.00
2023-01-27T05:19:01.692Z,0.00
2023-01-27T05:20:01.647Z,0.00
2023-01-27T05:21:03.292Z,0.00
2023-01-27T05:22:01.629Z,0.00
2023-01-27T05:23:01.617Z,0.00
2023-01-27T05:24:01.690Z,0.00
2023-01-27T05:25:01.625Z,0.00
2023-01-27T05:26:01.639Z,0.00
2023-01-27T05:27:01.656Z,0.00
2023-01-27T05:28:01.575Z,0.00
2023-01-27T05:29:01.575Z,0.00
2023-01-27T05:30:01.620Z,0.00
2023-01-27T05:31:01.728Z,0.00
2023-01-27T05:32:01.591Z,0.00
2023-01-27T05:33:01.571Z,0.00
2023-01-27T05:34:01.502Z,0.00
2023-01-27T05:35:01.488Z,0.00
2023-01-27T05:36:01.513Z,0.00
2023-01-27T05:37:01.474Z,0.00
2023-01-27T05:38:01.458Z,0.00
2023-01-27T05:39:01.560Z,0.00
2023-01-27T05:40:01.437Z,0.00
2023-01-27T05:41:01.440Z,0.00
2023-01-27T05:42:01.410Z,0.00
2023-01-27T05:43:01.421Z,0.00
2023-01-27T05:44:01.419Z,0.00
2023-01-27T05:45:01.402Z,0.00
2023-01-27T05:46:01.739Z,0.00
2023-01-27T05:47:01.360Z,0.00
2023-01-27T05:48:01.385Z,0.00
2023-01-27T05:49:01.349Z,0.00
2023-01-27T05:50:01.331Z,0.00
2023-01-27T05:51:01.355Z,0.00
2023-01-27T05:52:01.348Z,0.00
2023-01-27T05:53:01.288Z,0.00
2023-01-27T05:54:01.287Z,0.00
2023-01-27T05:55:01.298Z,0.00
2023-01-27T05:56:01.331Z,0.00
2023-01-27T05:57:01.262Z,0.00
2023-01-27T05:58:01.337Z,0.00
2023-01-27T05:59:01.235Z,0.00
2023-01-27T06:00:01.247Z,0.00
2023-01-27T06:01:01.228Z,0.00
2023-01-27T06:02:01.275Z,0.00
2023-01-27T06:03:01.228Z,0.00
2023-01-27T06:04:01.186Z,0.00
2023-01-27T06:05:01.283Z,0.00
2023-01-27T06:06:01.182Z,0.00
2023-01-27T06:07:01.161Z,0.00
2023-01-27T06:08:01.134Z,0.00
2023-01-27T06:09:01.128Z,0.00
2023-01-27T06:10:01.122Z,0.00
2023-01-27T06:11:01.124Z,0.00
2023-01-27T06:12:01.102Z,0.00
2023-01-27T06:13:01.089Z,0.00
2023-01-27T06:14:01.086Z,0.00
2023-01-27T06:15:01.139Z,0.00
2023-01-27T06:16:01.078Z,0.00
2023-01-27T06:17:01.059Z,0.00
2023-01-27T06:18:01.030Z,0.00
2023-01-27T06:19:01.023Z,0.00
2023-01-27T06:20:01.005Z,0.00
2023-01-27T06:21:01.037Z,0.00
2023-01-27T06:22:00.996Z,0.00
2023-01-27T06:23:00.990Z,0.00
2023-01-27T06:24:01.032Z,0.00
2023-01-27T06:25:00.922Z,0.00
2023-01-27T06:26:00.973Z,0.00
2023-01-27T06:27:00.948Z,0.00
2023-01-27T06:28:00.945Z,0.00
2023-01-27T06:29:01.119Z,0.00
2023-01-27T06:30:00.903Z,0.00
2023-01-27T06:31:00.933Z,0.00
2023-01-27T06:32:00.961Z,0.00
2023-01-27T06:33:00.819Z,0.00
2023-01-27T06:34:00.840Z,0.00
2023-01-27T06:35:00.794Z,0.00
2023-01-27T06:36:00.799Z,0.00
2023-01-27T06:37:00.776Z,0.00
2023-01-27T06:38:00.782Z,0.00
2023-01-27T06:39:00.775Z,0.00
2023-01-27T06:40:00.746Z,0.00
2023-01-27T06:41:00.839Z,0.00
2023-01-27T06:42:00.746Z,0.00
2023-01-27T06:43:00.712Z,0.00
2023-01-27T06:44:00.716Z,0.00
2023-01-27T06:45:00.694Z,0.00
2023-01-27T06:46:01.374Z,0.00
2023-01-27T06:47:00.714Z,0.00
2023-01-27T06:48:00.671Z,0.00
2023-01-27T06:49:00.664Z,0.00
2023-01-27T06:50:00.672Z,0.00
2023-01-27T06:51:00.651Z,0.00
2023-01-27T06:52:00.785Z,0.00
2023-01-27T06:53:00.621Z,0.00
2023-01-27T06:54:00.608Z,0.00
2023-01-27T06:55:00.591Z,0.00
2023-01-27T06:56:00.650Z,0.00
2023-01-27T06:57:00.564Z,0.00
2023-01-27T06:58:00.627Z,0.00
2023-01-27T06:59:00.565Z,0.00
2023-01-27T07:00:01.221Z,0.00
2023-01-27T07:01:00.558Z,0.00
2023-01-27T07:02:00.559Z,0.00
2023-01-27T07:03:00.504Z,0.00
2023-01-27T07:04:00.535Z,0.00
2023-01-27T07:05:00.492Z,0.00
2023-01-27T07:06:00.489Z,0.00
2023-01-27T07:07:00.490Z,0.00
2023-01-27T07:08:00.478Z,0.00
2023-01-27T07:09:01.051Z,0.00
2023-01-27T07:10:00.665Z,0.00
2023-01-27T07:11:00.458Z,0.00
2023-01-27T07:12:00.427Z,0.00
2023-01-27T07:13:00.405Z,0.00
2023-01-27T07:14:00.419Z,0.00
2023-01-27T07:15:00.371Z,0.00
2023-01-27T07:16:00.784Z,0.00
2023-01-27T07:17:00.380Z,0.00
2023-01-27T07:18:00.343Z,0.00
2023-01-27T07:19:00.703Z,0.00
2023-01-27T07:20:00.352Z,0.00
2023-01-27T07:21:00.333Z,0.00
2023-01-27T07:22:00.288Z,0.00
2023-01-27T07:23:00.303Z,0.00
2023-01-27T07:24:00.356Z,5.62
2023-01-27T07:25:00.290Z,5.62
2023-01-27T07:26:01.014Z,5.62
2023-01-27T07:27:00.240Z,5.62
2023-01-27T07:28:00.235Z,5.62
2023-01-27T07:29:00.220Z,5.62
2023-01-27T07:30:00.637Z,5.62
2023-01-27T07:31:00.288Z,5.62
2023-01-27T07:32:00.221Z,5.62
2023-01-27T07:33:00.242Z,5.62
2023-01-27T07:34:00.169Z,5.62
2023-01-27T07:35:00.173Z,5.62
2023-01-27T07:36:00.185Z,5.62
2023-01-27T07:37:00.174Z,5.62
2023-01-27T07:38:00.135Z,5.62
2023-01-27T07:39:00.120Z,5.62
2023-01-27T07:40:00.124Z,5.62
2023-01-27T07:41:00.100Z,5.62
2023-01-27T07:42:00.094Z,5.62
2023-01-27T07:43:00.259Z,5.62
2023-01-27T07:44:00.083Z,5.62
2023-01-27T07:45:00.120Z,5.62
2023-01-27T07:46:00.110Z,5.62
2023-01-27T07:47:00.124Z,5.62
2023-01-27T07:48:00.047Z,5.62
2023-01-27T07:49:00.025Z,5.62
2023-01-27T07:50:00.030Z,5.62
2023-01-27T07:51:00.166Z,5.62
2023-01-27T07:52:00.062Z,5.62
2023-01-27T07:53:00.035Z,5.62
2023-01-27T07:54:02.046Z,5.62
2023-01-27T07:54:59.944Z,11.25
2023-01-27T07:56:00.001Z,11.25
2023-01-27T07:56:59.978Z,11.25
2023-01-27T07:57:59.918Z,11.25
2023-01-27T07:58:59.935Z,11.25
2023-01-27T07:59:59.920Z,11.25
2023-01-27T08:00:59.973Z,11.25
2023-01-27T08:01:59.896Z,11.25
2023-01-27T08:02:59.978Z,16.88
2023-01-27T08:03:59.874Z,11.25
2023-01-27T08:04:59.880Z,16.88
2023-01-27T08:05:59.904Z,16.88
2023-01-27T08:06:59.845Z,16.88
2023-01-27T08:07:59.819Z,16.88
2023-01-27T08:08:59.878Z,16.88
2023-01-27T08:09:59.805Z,16.88
2023-01-27T08:10:59.848Z,16.88
2023-01-27T08:11:59.768Z,22.50
2023-01-27T08:12:59.865Z,16.88
2023-01-27T08:13:59.766Z,16.88
2023-01-27T08:14:59.759Z,16.88
2023-01-27T08:15:59.740Z,16.88
2023-01-27T08:16:59.727Z,11.25
2023-01-27T08:17:59.738Z,16.88
2023-01-27T08:18:59.751Z,11.25
2023-01-27T08:19:59.765Z,16.88
2023-01-27T08:20:59.700Z,16.88
2023-01-27T08:21:59.701Z,16.88
2023-01-27T08:22:59.706Z,16.88
2023-01-27T08:23:59.803Z,16.88
2023-01-27T08:24:59.641Z,11.25
2023-01-27T08:25:59.637Z,16.88
2023-01-27T08:26:59.619Z,11.25
2023-01-27T08:27:59.731Z,11.25
2023-01-27T08:28:59.597Z,16.88
2023-01-27T08:29:59.621Z,11.25
2023-01-27T08:30:59.645Z,11.25
2023-01-27T08:31:59.610Z,16.88
2023-01-27T08:32:59.551Z,16.88
2023-01-27T08:33:59.561Z,16.88
2023-01-27T08:34:59.540Z,16.88
2023-01-27T08:35:59.532Z,16.88
2023-01-27T08:36:59.541Z,16.88
2023-01-27T08:37:59.554Z,16.88
2023-01-27T08:38:59.517Z,16.88
2023-01-27T08:39:59.484Z,16.88
2023-01-27T08:40:59.530Z,16.88
2023-01-27T08:41:59.473Z,16.88
2023-01-27T08:42:59.463Z,16.88
2023-01-27T08:43:59.458Z,16.88
2023-01-27T08:44:59.443Z,16.88
2023-01-27T08:45:59.503Z,16.88
2023-01-27T08:46:59.432Z,16.88
2023-01-27T08:47:59.428Z,16.88
2023-01-27T08:48:59.394Z,16.88
2023-01-27T08:49:59.376Z,16.88
2023-01-27T08:50:59.410Z,16.88
2023-01-27T08:51:59.386Z,16.88
2023-01-27T08:52:59.350Z,16.88
2023-01-27T08:53:59.345Z,16.88
2023-01-27T08:54:59.385Z,22.50
2023-01-27T08:55:59.310Z,16.88
2023-01-27T08:56:59.340Z,16.88
2023-01-27T08:57:59.299Z,22.50
2023-01-27T08:58:59.315Z,16.88
2023-01-27T08:59:59.301Z,22.50
2023-01-27T09:00:59.308Z,22.50
2023-01-27T09:01:59.278Z,22.50
2023-01-27T09:02:59.254Z,22.50
2023-01-27T09:03:59.371Z,28.12
2023-01-27T09:04:59.265Z,28.12
2023-01-27T09:05:59.236Z,28.12
2023-01-27T09:06:59.221Z,28.12
2023-01-27T09:07:59.243Z,28.12
2023-01-27T09:08:59.237Z,33.75
2023-01-27T09:10:13.253Z,28.12
2023-01-27T09:10:59.190Z,28.12
2023-01-27T09:11:59.211Z,22.50
2023-01-27T09:12:59.190Z,28.12
2023-01-27T09:13:59.124Z,22.50
2023-01-27T09:14:59.135Z,28.12
2023-01-27T09:15:59.156Z,28.12
2023-01-27T09:16:59.126Z,28.12
2023-01-27T09:17:59.107Z,28.12
2023-01-27T09:18:59.156Z,28.12
2023-01-27T09:19:59.068Z,22.50
2023-01-27T09:20:59.063Z,22.50
2023-01-27T09:21:59.069Z,28.12
2023-01-27T09:22:59.040Z,22.50
2023-01-27T09:23:59.042Z,22.50
2023-01-27T09:24:59.045Z,22.50
2023-01-27T09:25:59.041Z,22.50
2023-01-27T09:27:00.970Z,22.50
2023-01-27T09:27:58.998Z,22.50
2023-01-27T09:28:58.986Z,22.50
2023-01-27T09:29:58.975Z,22.50
2023-01-27T09:30:58.984Z,22.50
2023-01-27T09:31:59.131Z,16.88
2023-01-27T09:32:58.947Z,16.88
2023-01-27T09:33:58.932Z,16.88
2023-01-27T09:34:58.952Z,16.88
2023-01-27T09:35:58.945Z,16.88
2023-01-27T09:36:58.945Z,22.50
2023-01-27T09:37:58.871Z,22.50
2023-01-27T09:38:58.965Z,22.50
2023-01-27T09:39:58.869Z,22.50
2023-01-27T09:40:58.902Z,22.50
2023-01-27T09:41:58.884Z,16.88
2023-01-27T09:42:58.845Z,22.50
2023-01-27T09:43:58.812Z,16.88
2023-01-27T09:44:58.869Z,16.88
2023-01-27T09:45:58.855Z,16.88
2023-01-27T09:47:00.056Z,16.88
2023-01-27T09:47:58.807Z,16.88
2023-01-27T09:48:58.799Z,16.88
2023-01-27T09:49:58.806Z,16.88
2023-01-27T09:50:58.766Z,16.88
2023-01-27T09:51:58.866Z,16.88
2023-01-27T09:52:58.728Z,16.88
2023-01-27T09:53:58.810Z,16.88
2023-01-27T09:54:58.714Z,16.88
2023-01-27T09:55:58.710Z,22.50
2023-01-27T09:56:58.833Z,22.50
2023-01-27T09:57:58.700Z,22.50
2023-01-27T09:58:58.745Z,16.88
2023-01-27T09:59:58.938Z,16.88
2023-01-27T10:00:58.647Z,16.88
2023-01-27T10:01:58.745Z,22.50
2023-01-27T10:02:58.620Z,16.88
2023-01-27T10:03:58.687Z,16.88
2023-01-27T10:04:58.706Z,22.50
2023-01-27T10:05:58.604Z,22.50
2023-01-27T10:06:58.616Z,16.88
2023-01-27T10:07:58.590Z,16.88
2023-01-27T10:08:58.580Z,16.88
2023-01-27T10:09:58.665Z,16.88
2023-01-27T10:10:58.715Z,16.88
2023-01-27T10:11:58.540Z,16.88
2023-01-27T10:12:58.514Z,16.88
2023-01-27T10:13:58.588Z,16.88
2023-01-27T10:14:58.695Z,16.88
2023-01-27T10:15:58.620Z,16.88
2023-01-27T10:16:59.122Z,16.88
2023-01-27T10:17:58.484Z,16.88
2023-01-27T10:18:58.502Z,16.88
2023-01-27T10:19:58.535Z,16.88
2023-01-27T10:20:58.445Z,16.88
2023-01-27T10:21:59.826Z,16.88
2023-01-27T10:22:58.453Z,22.50
2023-01-27T10:23:58.446Z,22.50
2023-01-27T10:24:58.472Z,28.12
2023-01-27T10:25:58.409Z,28.12
2023-01-27T10:26:58.495Z,33.75
2023-01-27T10:27:58.500Z,28.12
2023-01-27T10:28:58.991Z,33.75
2023-01-27T10:29:58.382Z,33.75
2023-01-27T10:30:58.385Z,39.38
2023-01-27T10:31:58.427Z,39.38
2023-01-27T10:32:58.316Z,33.75
2023-01-27T10:33:58.337Z,28.12
2023-01-27T10:34:58.298Z,28.12
2023-01-27T10:35:58.281Z,22.50
2023-01-27T10:36:58.295Z,28.12
2023-01-27T10:37:58.294Z,28.12
2023-01-27T10:38:58.295Z,22.50
2023-01-27T10:39:58.270Z,28.12
2023-01-27T10:40:58.288Z,28.12
2023-01-27T10:41:58.248Z,28.12
2023-01-27T10:42:58.221Z,22.50
2023-01-27T10:43:58.196Z,22.50
2023-01-27T10:44:58.211Z,22.50
2023-01-27T10:45:58.264Z,33.75
2023-01-27T10:46:58.243Z,33.75
2023-01-27T10:47:58.150Z,39.38
2023-01-27T10:48:58.139Z,33.75
2023-01-27T10:49:58.149Z,33.75
2023-01-27T10:50:58.153Z,28.12
2023-01-27T10:51:58.140Z,28.12
2023-01-27T10:52:58.131Z,28.12
2023-01-27T10:53:58.112Z,28.12
2023-01-27T10:54:58.096Z,28.12
2023-01-27T10:55:58.099Z,33.75
2023-01-27T10:56:58.108Z,28.12
2023-01-27T10:57:58.060Z,33.75
2023-01-27T10:58:58.067Z,33.75
2023-01-27T11:00:21.966Z,33.75
2023-01-27T11:01:19.813Z,39.38
2023-01-27T11:01:58.124Z,39.38
2023-01-27T11:02:58.150Z,39.38
2023-01-27T11:03:58.073Z,45.00
2023-01-27T11:04:58.021Z,39.38
2023-01-27T11:05:57.982Z,39.38
2023-01-27T11:06:57.977Z,50.62
2023-01-27T11:07:57.977Z,50.62
2023-01-27T11:08:57.960Z,56.25
2023-01-27T11:09:57.931Z,50.62
2023-01-27T11:10:57.922Z,50.62
2023-01-27T11:11:57.915Z,50.62
2023-01-27T11:12:57.873Z,61.88
2023-01-27T11:13:57.868Z,56.25
2023-01-27T11:14:57.863Z,61.88
2023-01-27T11:15:57.942Z,61.88
2023-01-27T11:16:57.875Z,61.88
2023-01-27T11:17:57.863Z,56.25
2023-01-27T11:19:04.386Z,67.50
2023-01-27T11:19:57.821Z,67.50
2023-01-27T11:20:57.797Z,61.88
2023-01-27T11:22:07.775Z,61.88
2023-01-27T11:22:57.810Z,61.88
2023-01-27T11:23:57.776Z,61.88
2023-01-27T11:24:57.759Z,56.25
2023-01-27T11:25:57.759Z,61.88
2023-01-27T11:26:57.748Z,61.88
2023-01-27T11:27:57.731Z,67.50
2023-01-27T11:28:57.719Z,67.50
2023-01-27T11:29:57.784Z,61.88
2023-01-27T11:30:57.700Z,73.12
2023-01-27T11:31:57.755Z,61.88
2023-01-27T11:32:57.689Z,67.50
2023-01-27T11:33:57.665Z,67.50
2023-01-27T11:34:57.658Z,73.12
2023-01-27T11:35:57.643Z,61.88
2023-01-27T11:36:57.642Z,50.62
2023-01-27T11:38:09.894Z,56.25
2023-01-27T11:38:57.623Z,50.62
2023-01-27T11:39:57.604Z,45.00
2023-01-27T11:40:57.599Z,50.62
2023-01-27T11:41:57.599Z,50.62
2023-01-27T11:42:57.563Z,39.38
2023-01-27T11:43:57.568Z,45.00
2023-01-27T11:44:57.550Z,56.25
2023-01-27T11:45:57.583Z,56.25
2023-01-27T11:46:57.517Z,45.00
2023-01-27T11:47:57.525Z,56.25
2023-01-27T11:48:57.501Z,50.62
2023-01-27T11:49:57.502Z,45.00
2023-01-27T11:50:57.501Z,45.00
2023-01-27T11:51:57.488Z,39.38
2023-01-27T11:52:57.480Z,50.62
2023-01-27T11:53:57.451Z,45.00
2023-01-27T11:54:57.433Z,56.25
2023-01-27T11:55:57.440Z,45.00
2023-01-27T11:56:57.413Z,45.00
2023-01-27T11:57:57.426Z,39.38
2023-01-27T11:58:57.390Z,39.38
2023-01-27T11:59:57.389Z,33.75
2023-01-27T12:00:57.375Z,33.75
2023-01-27T12:01:57.378Z,39.38
2023-01-27T12:02:57.420Z,45.00
2023-01-27T12:03:57.395Z,56.25
2023-01-27T12:04:57.495Z,61.88
2023-01-27T12:05:57.439Z,45.00
2023-01-27T12:06:57.308Z,45.00
2023-01-27T12:07:57.350Z,45.00
2023-01-27T12:08:57.309Z,39.38
2023-01-27T12:09:57.287Z,39.38
2023-01-27T12:10:57.343Z,45.00
2023-01-27T12:11:57.262Z,45.00
2023-01-27T12:12:57.267Z,50.62
2023-01-27T12:13:57.238Z,45.00
2023-01-27T12:14:57.230Z,33.75
2023-01-27T12:15:57.282Z,33.75
2023-01-27T12:16:57.212Z,33.75
2023-01-27T12:17:57.242Z,33.75
2023-01-27T12:18:57.189Z,33.75
2023-01-27T12:19:57.217Z,33.75
2023-01-27T12:20:57.193Z,28.12
2023-01-27T12:21:57.196Z,33.75
2023-01-27T12:22:57.161Z,28.12
2023-01-27T12:23:57.258Z,22.50
2023-01-27T12:24:57.136Z,22.50
2023-01-27T12:25:57.144Z,22.50
2023-01-27T12:26:57.119Z,22.50
2023-01-27T12:27:57.123Z,22.50
2023-01-27T12:28:57.131Z,22.50
2023-01-27T12:29:57.081Z,28.12
2023-01-27T12:30:57.133Z,28.12
2023-01-27T12:31:57.104Z,28.12
2023-01-27T12:32:57.073Z,22.50
2023-01-27T12:33:57.036Z,28.12
2023-01-27T12:34:57.025Z,28.12
2023-01-27T12:35:57.017Z,33.75
2023-01-27T12:36:57.017Z,28.12
2023-01-27T12:37:57.054Z,28.12
2023-01-27T12:38:56.992Z,22.50
2023-01-27T12:39:57.000Z,28.12
2023-01-27T12:40:56.951Z,28.12
2023-01-27T12:41:56.961Z,22.50
2023-01-27T12:42:56.960Z,22.50
2023-01-27T12:43:56.926Z,22.50
2023-01-27T12:44:59.496Z,28.12
2023-01-27T12:45:56.914Z,28.12
2023-01-27T12:46:56.924Z,22.50
2023-01-27T12:47:56.918Z,22.50
2023-01-27T12:48:56.873Z,22.50
2023-01-27T12:49:56.871Z,22.50
2023-01-27T12:50:56.912Z,22.50
2023-01-27T12:51:56.860Z,16.88
2023-01-27T12:52:56.856Z,22.50
2023-01-27T12:53:56.830Z,16.88
2023-01-27T12:54:56.812Z,16.88
2023-01-27T12:55:56.821Z,22.50
2023-01-27T12:56:56.804Z,16.88
2023-01-27T12:57:56.805Z,16.88
2023-01-27T12:58:56.787Z,16.88
2023-01-27T12:59:56.765Z,16.88
2023-01-27T13:00:56.767Z,16.88
2023-01-27T13:01:56.795Z,16.88
2023-01-27T13:02:56.741Z,16.88
2023-01-27T13:03:56.746Z,16.88
2023-01-27T13:04:56.711Z,16.88
2023-01-27T13:05:56.726Z,16.88
2023-01-27T13:06:56.692Z,16.88
2023-01-27T13:07:56.694Z,16.88